createdAt,value
2022-08-18T00:02:18.377Z,22.89
2022-08-18T00:04:49.550Z,22.88
2022-08-18T00:07:24.119Z,22.68
2022-08-18T00:09:52.642Z,23.00
2022-08-18T00:12:32.776Z,22.91
2022-08-18T00:15:03.690Z,22.86
2022-08-18T00:17:34.807Z,22.88
2022-08-18T00:20:05.154Z,22.87
2022-08-18T00:22:33.548Z,22.89
2022-08-18T00:25:02.014Z,22.96
2022-08-18T00:27:32.371Z,22.99
2022-08-18T00:30:04.814Z,23.14
2022-08-18T00:32:44.513Z,23.12
2022-08-18T00:35:20.959Z,23.02
2022-08-18T00:37:50.434Z,22.90
2022-08-18T00:40:23.213Z,22.77
2022-08-18T00:42:58.062Z,22.86
2022-08-18T00:45:32.829Z,22.72
2022-08-18T00:48:02.500Z,22.61
2022-08-18T00:50:38.210Z,22.52
2022-08-18T00:53:21.511Z,22.47
2022-08-18T00:55:54.154Z,22.39
2022-08-18T00:58:29.415Z,22.35
2022-08-18T01:01:03.032Z,22.30
2022-08-18T01:03:36.322Z,22.13
2022-08-18T01:06:14.548Z,22.30
2022-08-18T01:08:43.002Z,22.38
2022-08-18T01:11:11.501Z,22.41
2022-08-18T01:13:42.673Z,22.42
2022-08-18T01:16:29.000Z,22.40
2022-08-18T01:19:16.636Z,22.38
2022-08-18T01:21:52.178Z,22.34
2022-08-18T01:24:46.572Z,22.30
2022-08-18T01:27:18.603Z,22.29
2022-08-18T01:29:48.622Z,22.21
2022-08-18T01:32:20.352Z,22.17
2022-08-18T01:34:53.625Z,22.16
2022-08-18T01:37:26.388Z,22.14
2022-08-18T01:41:17.550Z,22.12
2022-08-18T01:42:46.557Z,22.11
2022-08-18T01:45:18.086Z,22.05
2022-08-18T01:47:48.027Z,22.12
2022-08-18T01:50:17.684Z,22.06
2022-08-18T01:52:46.195Z,22.07
2022-08-18T01:55:19.785Z,21.99
2022-08-18T01:57:48.164Z,21.92
2022-08-18T02:00:19.813Z,21.89
2022-08-18T02:03:01.673Z,21.81
2022-08-18T02:05:36.722Z,21.74
2022-08-18T02:08:08.411Z,21.67
2022-08-18T02:10:38.635Z,21.72
2022-08-18T02:13:07.522Z,21.72
2022-08-18T02:15:36.368Z,21.79
2022-08-18T02:18:04.745Z,21.80
2022-08-18T02:20:33.081Z,21.79
2022-08-18T02:23:03.378Z,21.74
2022-08-18T02:25:33.104Z,21.69
2022-08-18T02:28:02.809Z,21.74
2022-08-18T02:30:31.247Z,21.79
2022-08-18T02:32:59.660Z,21.80
2022-08-18T02:35:28.167Z,21.85
2022-08-18T02:37:57.968Z,21.86
2022-08-18T02:40:28.268Z,21.60
2022-08-18T02:42:56.964Z,21.88
2022-08-18T02:45:26.665Z,21.71
2022-08-18T02:47:56.369Z,21.58
2022-08-18T02:50:25.134Z,21.54
2022-08-18T02:52:54.246Z,21.47
2022-08-18T02:55:22.693Z,21.37
2022-08-18T02:57:51.175Z,21.30
2022-08-18T03:00:20.680Z,21.37
2022-08-18T03:02:52.074Z,21.45
2022-08-18T03:05:20.585Z,21.48
2022-08-18T03:07:50.376Z,21.39
2022-08-18T03:10:32.545Z,21.49
2022-08-18T03:13:02.680Z,21.59
2022-08-18T03:15:31.009Z,21.52
2022-08-18T03:18:02.138Z,20.99
2022-08-18T03:20:31.628Z,21.54
2022-08-18T03:23:04.739Z,21.40
2022-08-18T03:25:34.489Z,21.52
2022-08-18T03:28:04.449Z,21.41
2022-08-18T03:30:32.735Z,21.62
2022-08-18T03:33:02.383Z,21.66
2022-08-18T03:35:31.103Z,21.69
2022-08-18T03:38:00.835Z,21.71
2022-08-18T03:40:29.558Z,21.81
2022-08-18T03:42:57.928Z,22.00
2022-08-18T03:45:31.967Z,22.01
2022-08-18T03:48:02.276Z,21.66
2022-08-18T03:50:32.329Z,20.79
2022-08-18T03:53:00.656Z,21.42
2022-08-18T03:55:29.634Z,21.55
2022-08-18T03:58:03.518Z,21.53
2022-08-18T04:00:33.655Z,21.65
2022-08-18T04:03:04.527Z,21.73
2022-08-18T04:05:34.315Z,21.79
2022-08-18T04:08:04.808Z,21.80
2022-08-18T04:10:33.396Z,21.85
2022-08-18T04:13:02.659Z,21.88
2022-08-18T04:15:30.929Z,21.94
2022-08-18T04:18:04.482Z,21.97
2022-08-18T04:20:33.722Z,21.91
2022-08-18T04:23:02.995Z,21.91
2022-08-18T04:25:33.478Z,21.91
2022-08-18T04:28:03.563Z,21.83
2022-08-18T04:30:32.308Z,22.00
2022-08-18T04:33:06.408Z,22.08
2022-08-18T04:35:38.936Z,21.53
2022-08-18T04:38:07.493Z,22.07
2022-08-18T04:40:35.744Z,22.07
2022-08-18T04:43:04.093Z,22.01
2022-08-18T04:45:32.397Z,22.09
2022-08-18T04:48:00.674Z,22.05
2022-08-18T04:50:30.215Z,22.03
2022-08-18T04:53:16.131Z,21.94
2022-08-18T04:55:49.506Z,21.87
2022-08-18T04:58:18.727Z,21.84
2022-08-18T05:00:47.342Z,21.90
2022-08-18T05:03:15.934Z,21.99
2022-08-18T05:05:45.607Z,21.80
2022-08-18T05:08:13.966Z,21.98
2022-08-18T05:10:42.240Z,22.04
2022-08-18T05:13:10.519Z,22.09
2022-08-18T05:16:07.022Z,22.06
2022-08-18T05:18:28.591Z,22.03
2022-08-18T05:21:00.079Z,22.08
2022-08-18T05:23:31.589Z,22.05
2022-08-18T05:26:02.209Z,21.92
2022-08-18T05:28:30.655Z,21.86
2022-08-18T05:31:00.397Z,21.75
2022-08-18T05:33:29.297Z,21.75
2022-08-18T05:36:06.034Z,21.69
2022-08-18T05:38:44.981Z,21.95
2022-08-18T05:41:21.893Z,22.05
2022-08-18T05:43:51.844Z,22.28
2022-08-18T05:46:23.497Z,22.27
2022-08-18T05:48:52.049Z,22.36
2022-08-18T05:51:30.352Z,22.43
2022-08-18T05:54:16.390Z,22.45
2022-08-18T05:56:49.483Z,22.56
2022-08-18T05:59:24.155Z,22.75
2022-08-18T06:02:00.366Z,22.90
2022-08-18T06:04:43.073Z,23.13
2022-08-18T06:07:18.727Z,23.33
2022-08-18T06:09:51.688Z,23.48
2022-08-18T06:12:29.165Z,23.69
2022-08-18T06:15:06.684Z,23.48
2022-08-18T06:18:05.287Z,24.04
2022-08-18T06:20:47.856Z,24.19
2022-08-18T06:23:28.942Z,24.33
2022-08-18T06:26:12.466Z,24.48
2022-08-18T06:29:02.628Z,24.57
2022-08-18T06:31:41.835Z,24.69
2022-08-18T06:34:21.791Z,24.82
2022-08-18T06:36:55.702Z,24.92
2022-08-18T06:39:33.907Z,24.72
2022-08-18T06:42:05.958Z,25.03
2022-08-18T06:44:39.815Z,25.03
2022-08-18T06:47:18.405Z,25.21
2022-08-18T06:49:54.920Z,25.33
2022-08-18T06:52:29.117Z,25.42
2022-08-18T06:55:01.149Z,25.52
2022-08-18T06:57:34.982Z,25.70
2022-08-18T07:00:11.259Z,25.61
2022-08-18T07:02:49.989Z,25.40
2022-08-18T07:05:26.624Z,25.34
2022-08-18T07:08:18.615Z,25.38
2022-08-18T07:10:51.519Z,25.49
2022-08-18T07:13:26.264Z,25.60
2022-08-18T07:15:57.098Z,25.59
2022-08-18T07:18:30.316Z,25.89
2022-08-18T07:21:01.701Z,26.05
2022-08-18T07:23:35.072Z,26.17
2022-08-18T07:26:11.308Z,26.19
2022-08-18T07:28:44.230Z,26.24
2022-08-18T07:31:37.701Z,26.29
2022-08-18T07:34:13.232Z,26.24
2022-08-18T07:36:48.685Z,26.30
2022-08-18T07:39:24.515Z,26.14
2022-08-18T07:42:00.266Z,26.10
2022-08-18T07:44:44.300Z,25.91
2022-08-18T07:47:18.908Z,25.71
2022-08-18T07:50:16.493Z,25.70
2022-08-18T07:52:47.042Z,25.55
2022-08-18T07:55:28.936Z,25.41
2022-08-18T07:58:18.717Z,25.46
2022-08-18T08:00:59.422Z,25.54
2022-08-18T08:03:43.811Z,25.81
2022-08-18T08:06:21.967Z,26.02
2022-08-18T08:09:00.833Z,26.06
2022-08-18T08:11:44.528Z,26.16
2022-08-18T08:14:37.319Z,26.27
2022-08-18T08:17:17.228Z,26.28
2022-08-18T08:20:12.631Z,26.28
2022-08-18T08:22:54.564Z,26.41
2022-08-18T08:25:45.798Z,26.17
2022-08-18T08:28:28.003Z,26.77
2022-08-18T08:31:33.059Z,26.77
2022-08-18T08:34:08.591Z,27.05
2022-08-18T08:36:41.160Z,26.91
2022-08-18T08:39:18.773Z,27.52
2022-08-18T08:41:53.718Z,27.56
2022-08-18T08:44:58.747Z,27.63
2022-08-18T08:47:33.980Z,27.65
2022-08-18T08:50:07.083Z,27.58
2022-08-18T08:52:43.281Z,26.72
2022-08-18T08:55:26.417Z,27.03
2022-08-18T08:58:02.120Z,27.27
2022-08-18T09:00:31.282Z,27.56
2022-08-18T09:03:30.777Z,27.65
2022-08-18T09:06:15.269Z,27.67
2022-08-18T09:09:08.941Z,27.75
2022-08-18T09:12:02.644Z,27.79
2022-08-18T09:15:05.856Z,27.88
2022-08-18T09:17:56.217Z,28.16
2022-08-18T09:20:57.126Z,28.36
2022-08-18T09:23:29.836Z,28.59
2022-08-18T09:26:01.117Z,28.36
2022-08-18T09:28:58.826Z,28.65
2022-08-18T09:31:31.813Z,28.06
2022-08-18T09:34:26.332Z,27.93
2022-08-18T09:37:19.306Z,27.88
2022-08-18T09:40:51.441Z,27.77
2022-08-18T09:43:30.523Z,27.37
2022-08-18T09:46:04.781Z,26.64
2022-08-18T09:48:35.811Z,26.23
2022-08-18T09:51:39.785Z,26.02
2022-08-18T09:54:20.739Z,25.82
2022-08-18T09:57:20.742Z,26.03
2022-08-18T10:00:33.487Z,26.24
2022-08-18T10:03:26.072Z,26.36
2022-08-18T10:09:36.855Z,26.53
2022-08-18T10:12:23.318Z,26.58
2022-08-18T10:15:49.338Z,26.67
2022-08-18T10:18:43.260Z,26.81
2022-08-18T10:21:23.007Z,26.80
2022-08-18T10:24:15.174Z,26.57
2022-08-18T10:27:36.664Z,26.78
2022-08-18T10:34:19.175Z,27.01
2022-08-18T10:36:52.779Z,27.31
2022-08-18T10:39:24.813Z,27.38
2022-08-18T10:42:08.058Z,27.48
2022-08-18T10:44:45.445Z,27.58
2022-08-18T10:47:24.909Z,27.65
2022-08-18T10:49:55.100Z,27.67
2022-08-18T10:53:10.174Z,27.49
2022-08-18T10:55:56.992Z,27.58
2022-08-18T10:59:04.376Z,27.60
2022-08-18T11:01:48.858Z,27.29
2022-08-18T11:07:23.936Z,27.75
2022-08-18T11:13:08.795Z,28.09
2022-08-18T11:15:56.337Z,28.52
2022-08-18T11:18:36.290Z,28.81
2022-08-18T11:21:34.215Z,29.21
2022-08-18T11:24:16.867Z,29.50
2022-08-18T11:29:40.404Z,29.02
2022-08-18T11:32:12.723Z,29.35
2022-08-18T11:34:45.782Z,29.31
2022-08-18T11:37:48.495Z,29.34
2022-08-18T11:43:29.963Z,28.90
2022-08-18T11:46:30.260Z,29.07
2022-08-18T11:49:02.134Z,29.16
2022-08-18T11:51:34.937Z,29.16
2022-08-18T11:57:46.779Z,29.17
2022-08-18T12:00:43.142Z,29.30
2022-08-18T12:03:23.941Z,29.29
2022-08-18T12:05:58.755Z,29.51
2022-08-18T12:11:30.013Z,29.70
2022-08-18T12:14:31.922Z,29.83
2022-08-18T12:16:54.457Z,29.83
2022-08-18T12:19:25.061Z,29.77
2022-08-18T12:21:58.390Z,29.75
2022-08-18T12:24:36.571Z,29.63
2022-08-18T12:27:21.007Z,29.52
2022-08-18T12:29:53.192Z,29.48
2022-08-18T12:35:13.148Z,29.49
2022-08-18T12:38:11.316Z,29.66
2022-08-18T12:40:33.155Z,29.65
2022-08-18T12:43:02.592Z,29.69
2022-08-18T12:45:32.628Z,29.72
2022-08-18T12:48:04.005Z,29.63
2022-08-18T12:50:37.553Z,29.78
2022-08-18T12:53:08.070Z,29.94
2022-08-18T12:55:43.643Z,29.96
2022-08-18T12:58:14.069Z,29.72
2022-08-18T13:00:44.825Z,29.89
2022-08-18T13:03:13.126Z,29.90
2022-08-18T13:05:41.493Z,29.77
2022-08-18T13:08:30.504Z,29.51
2022-08-18T13:11:14.491Z,29.39
2022-08-18T13:13:53.307Z,29.35
2022-08-18T13:16:30.855Z,29.49
2022-08-18T13:19:10.954Z,29.18
2022-08-18T13:21:41.357Z,29.17
2022-08-18T13:24:09.963Z,29.32
2022-08-18T13:26:45.794Z,29.46
2022-08-18T13:29:17.579Z,29.57
2022-08-18T13:31:56.004Z,29.46
2022-08-18T13:34:29.970Z,29.38
2022-08-18T13:36:58.860Z,29.46
2022-08-18T13:39:34.142Z,29.39
2022-08-18T13:42:26.292Z,29.05
2022-08-18T13:44:55.078Z,28.69
2022-08-18T13:47:29.206Z,28.82
2022-08-18T13:49:59.860Z,28.89
2022-08-18T13:52:34.903Z,28.61
2022-08-18T13:55:07.983Z,28.65
2022-08-18T13:57:38.441Z,28.79
2022-08-18T14:00:18.433Z,28.90
2022-08-18T14:02:53.547Z,29.00
2022-08-18T14:05:36.367Z,28.97
2022-08-18T14:08:11.124Z,29.10
2022-08-18T14:10:50.638Z,29.11
2022-08-18T14:13:25.092Z,29.00
2022-08-18T14:15:56.312Z,29.09
2022-08-18T14:18:30.831Z,29.01
2022-08-18T14:21:22.902Z,29.05
2022-08-18T14:24:10.681Z,28.84
2022-08-18T14:26:50.519Z,28.77
2022-08-18T14:29:45.838Z,28.32
2022-08-18T14:32:08.629Z,28.34
2022-08-18T14:34:50.608Z,28.01
2022-08-18T14:37:20.110Z,27.92
2022-08-18T14:39:50.365Z,28.04
2022-08-18T14:42:41.354Z,27.47
2022-08-18T14:45:17.851Z,27.20
2022-08-18T14:47:56.876Z,27.35
2022-08-18T14:50:28.463Z,27.43
2022-08-18T14:52:56.782Z,27.04
2022-08-18T14:55:27.614Z,27.20
2022-08-18T14:57:58.561Z,27.39
2022-08-18T15:00:29.184Z,27.47
2022-08-18T15:02:59.838Z,27.35
2022-08-18T15:05:33.729Z,27.13
2022-08-18T15:08:04.719Z,27.24
2022-08-18T15:10:33.921Z,27.44
2022-08-18T15:13:02.495Z,27.48
2022-08-18T15:15:50.643Z,27.27
2022-08-18T15:18:22.258Z,27.14
2022-08-18T15:21:19.744Z,27.02
2022-08-18T15:24:20.153Z,27.16
2022-08-18T15:26:51.507Z,27.41
2022-08-18T15:29:22.595Z,27.55
2022-08-18T15:32:02.220Z,27.63
2022-08-18T15:34:46.935Z,27.07
2022-08-18T15:37:24.450Z,27.21
2022-08-18T15:40:05.625Z,26.97
2022-08-18T15:42:33.988Z,27.10
2022-08-18T15:45:11.514Z,26.96
2022-08-18T15:47:41.655Z,26.78
2022-08-18T15:50:25.882Z,26.78
2022-08-18T15:52:59.276Z,26.74
2022-08-18T15:55:29.780Z,27.05
2022-08-18T15:58:10.902Z,27.04
2022-08-18T16:00:46.255Z,26.87
2022-08-18T16:03:16.976Z,26.79
2022-08-18T16:05:53.077Z,26.66
2022-08-18T16:08:25.937Z,26.54
2022-08-18T16:10:55.453Z,26.46
2022-08-18T16:13:26.436Z,26.74
2022-08-18T16:15:54.725Z,26.89
2022-08-18T16:18:22.939Z,26.61
2022-08-18T16:20:52.759Z,26.92
2022-08-18T16:23:26.516Z,27.02
2022-08-18T16:26:01.850Z,27.15
2022-08-18T16:28:34.390Z,27.27
2022-08-18T16:31:04.109Z,27.21
2022-08-18T16:33:32.477Z,27.31
2022-08-18T16:36:05.867Z,27.33
2022-08-18T16:38:37.039Z,26.98
2022-08-18T16:41:11.323Z,26.64
2022-08-18T16:43:44.336Z,26.31
2022-08-18T16:46:14.215Z,26.58
2022-08-18T16:48:43.162Z,26.79
2022-08-18T16:51:19.309Z,26.88
2022-08-18T16:53:52.135Z,26.89
2022-08-18T16:56:23.206Z,26.55
2022-08-18T16:59:10.465Z,26.66
2022-08-18T17:01:57.633Z,26.96
2022-08-18T17:04:29.083Z,27.08
2022-08-18T17:06:58.451Z,27.23
2022-08-18T17:09:28.494Z,27.25
2022-08-18T17:11:56.863Z,27.31
2022-08-18T17:14:28.607Z,27.32
2022-08-18T17:16:58.549Z,27.41
2022-08-18T17:19:31.202Z,27.36
2022-08-18T17:21:59.737Z,27.38
2022-08-18T17:24:31.276Z,27.45
2022-08-18T17:27:21.192Z,27.49
2022-08-18T17:30:03.343Z,27.50
2022-08-18T17:32:42.022Z,27.58
2022-08-18T17:35:15.205Z,27.52
2022-08-18T17:37:52.203Z,27.50
2022-08-18T17:40:29.267Z,27.51
2022-08-18T17:42:59.824Z,27.52
2022-08-18T17:45:29.796Z,27.49
2022-08-18T17:48:04.761Z,27.52
2022-08-18T17:50:56.138Z,27.51
2022-08-18T17:53:25.951Z,27.43
2022-08-18T17:56:03.102Z,27.45
2022-08-18T17:58:40.642Z,27.31
2022-08-18T18:01:11.166Z,27.43
2022-08-18T18:03:40.067Z,27.37
2022-08-18T18:06:20.222Z,27.37
2022-08-18T18:08:55.549Z,27.38
2022-08-18T18:11:32.295Z,27.40
2022-08-18T18:14:02.594Z,27.38
2022-08-18T18:16:35.476Z,27.34
2022-08-18T18:19:07.661Z,27.24
2022-08-18T18:21:53.509Z,27.23
2022-08-18T18:24:33.289Z,27.18
2022-08-18T18:27:03.748Z,27.15
2022-08-18T18:29:38.092Z,27.16
2022-08-18T18:32:26.282Z,27.12
2022-08-18T18:35:27.460Z,27.03
2022-08-18T18:37:58.068Z,26.96
2022-08-18T18:40:34.980Z,26.90
2022-08-18T18:43:25.219Z,26.91
2022-08-18T18:46:24.869Z,26.89
2022-08-18T18:49:16.745Z,26.76
2022-08-18T18:52:00.399Z,26.77
2022-08-18T18:54:50.814Z,26.67
2022-08-18T18:57:31.822Z,26.56
2022-08-18T19:00:18.148Z,26.40
2022-08-18T19:03:03.700Z,26.43
2022-08-18T19:05:39.031Z,26.34
2022-08-18T19:08:24.036Z,26.22
2022-08-18T19:11:00.889Z,26.25
2022-08-18T19:13:35.432Z,26.13
2022-08-18T19:16:23.698Z,25.87
2022-08-18T19:18:57.668Z,25.74
2022-08-18T19:22:04.021Z,25.57
2022-08-18T19:24:42.095Z,25.52
2022-08-18T19:27:23.816Z,25.45
2022-08-18T19:29:57.749Z,25.48
2022-08-18T19:32:39.319Z,25.42
2022-08-18T19:35:13.529Z,24.64
2022-08-18T19:38:07.355Z,25.33
2022-08-18T19:40:45.481Z,25.39
2022-08-18T19:43:24.875Z,25.31
2022-08-18T19:46:02.683Z,25.29
2022-08-18T19:48:43.142Z,25.21
2022-08-18T19:51:23.450Z,25.26
2022-08-18T19:54:25.646Z,25.19
2022-08-18T19:57:11.820Z,25.17
2022-08-18T20:00:18.800Z,25.16
2022-08-18T20:03:33.341Z,24.96
2022-08-18T20:06:34.595Z,24.92
2022-08-18T20:09:44.812Z,24.94
2022-08-18T20:12:37.769Z,24.85
2022-08-18T20:15:16.505Z,24.78
2022-08-18T20:18:08.244Z,24.79
2022-08-18T20:20:39.483Z,24.78
2022-08-18T20:23:34.687Z,24.73
2022-08-18T20:26:03.122Z,24.63
2022-08-18T20:28:40.852Z,24.49
2022-08-18T20:31:14.742Z,24.59
2022-08-18T20:33:48.143Z,24.50
2022-08-18T20:36:37.040Z,24.33
2022-08-18T20:39:41.207Z,24.27
2022-08-18T20:42:43.610Z,24.13
2022-08-18T20:45:30.517Z,23.92
2022-08-18T20:48:17.687Z,23.67
2022-08-18T20:51:09.212Z,23.43
2022-08-18T20:54:17.578Z,23.41
2022-08-18T20:56:54.360Z,23.32
2022-08-18T20:59:30.589Z,23.37
2022-08-18T21:02:02.066Z,23.37
2022-08-18T21:04:52.021Z,23.22
2022-08-18T21:07:36.304Z,23.32
2022-08-18T21:10:13.791Z,23.33
2022-08-18T21:12:52.946Z,23.24
2022-08-18T21:15:26.310Z,23.04
2022-08-18T21:18:03.318Z,23.14
2022-08-18T21:20:32.875Z,23.10
2022-08-18T21:23:12.738Z,23.19
2022-08-18T21:25:53.811Z,23.06
2022-08-18T21:28:27.080Z,23.29
2022-08-18T21:31:42.346Z,23.29
2022-08-18T21:33:52.559Z,23.29
2022-08-18T21:36:25.401Z,23.31
2022-08-18T21:39:03.422Z,23.15
2022-08-18T21:41:34.995Z,22.88
2022-08-18T21:44:08.560Z,22.78
2022-08-18T21:46:37.618Z,22.86
2022-08-18T21:49:06.657Z,22.72
2022-08-18T21:51:46.704Z,22.47
2022-08-18T21:54:19.307Z,22.51
2022-08-18T21:56:48.281Z,22.66
2022-08-18T21:59:20.847Z,22.71
2022-08-18T22:01:51.730Z,22.59
2022-08-18T22:04:28.506Z,22.68
2022-08-18T22:07:00.909Z,22.67
2022-08-18T22:09:53.224Z,22.70
2022-08-18T22:12:51.507Z,22.51
2022-08-18T22:15:24.290Z,22.69
2022-08-18T22:17:57.733Z,22.68
2022-08-18T22:20:49.698Z,22.73
2022-08-18T22:23:54.031Z,22.68
2022-08-18T22:26:27.185Z,22.59
2022-08-18T22:29:02.207Z,22.60
2022-08-18T22:31:35.580Z,22.61
2022-08-18T22:34:07.356Z,22.66
2022-08-18T22:36:38.993Z,22.50
2022-08-18T22:39:12.530Z,22.71
2022-08-18T22:41:41.856Z,22.71
2022-08-18T22:44:10.419Z,22.69
2022-08-18T22:46:40.204Z,22.67
2022-08-18T22:49:08.515Z,22.68
2022-08-18T22:51:37.496Z,22.64
2022-08-18T22:54:08.397Z,22.63
2022-08-18T22:56:37.898Z,22.68
2022-08-18T22:59:15.594Z,22.54
2022-08-18T23:01:51.776Z,22.50
2022-08-18T23:04:24.629Z,22.57
2022-08-18T23:06:53.785Z,22.49
2022-08-18T23:09:24.839Z,22.38
2022-08-18T23:11:56.716Z,22.40
2022-08-18T23:14:25.651Z,22.40
2022-08-18T23:16:55.239Z,22.41
2022-08-18T23:19:23.551Z,22.47
2022-08-18T23:21:52.459Z,22.26
2022-08-18T23:24:22.470Z,22.08
2022-08-18T23:26:50.922Z,21.76
2022-08-18T23:29:21.121Z,21.53
2022-08-18T23:31:51.415Z,21.63
2022-08-18T23:34:27.251Z,21.54
2022-08-18T23:37:00.845Z,21.40
2022-08-18T23:39:31.631Z,21.27
2022-08-18T23:42:00.979Z,21.28
2022-08-18T23:44:30.317Z,21.43
2022-08-18T23:47:00.473Z,21.44
2022-08-18T23:49:31.747Z,21.54
2022-08-18T23:52:01.424Z,21.71
2022-08-18T23:54:33.357Z,21.83
2022-08-18T23:57:02.252Z,21.97
2022-08-18T23:59:30.697Z,22.08
